L67 weather

CLOSED Rialto Municipal Miro Field
Rialto, California, United States

Public forecast

Using degrees Fahrenheit for public forecast. Weather courtesy of forecast.io.

Closest aviation weather report (METAR) to Rialto Municipal Miro Field

Closest report is San Bernardino International Airport, 8.5 nm (15.8 km) ESE. Retrieved 2019/10/22 07:40 UTC (2 minutes ago):

KSBD 220740Z AUTO 00000KT 10SM CLR 19/M02 A3010 RMK AO2 T01851024

Closest aviation forecast (TAF) to Rialto Municipal Miro Field

Closest forecast is San Bernardino International Airport, 8.5 nm (15.8 km) ESE. Retrieved 2019/10/22 06:22 UTC (1 hour ago):

TAF KSBD 220520Z 2206/2306 32008KT P6SM SKC FM222000 VRB05KT P6SM SKC